createdAt,value
2017-11-20T00:00:24.831Z,97182.92
2017-11-20T00:02:50.628Z,97185.93
2017-11-20T00:05:17.112Z,97182.77
2017-11-20T00:07:42.884Z,97187.19
2017-11-20T00:10:12.856Z,97182.19
2017-11-20T00:12:38.619Z,97188.59
2017-11-20T00:15:07.695Z,97183.94
2017-11-20T00:17:33.470Z,97186.53
2017-11-20T00:20:02.681Z,97184.05
2017-11-20T00:22:28.455Z,97189.27
2017-11-20T00:24:57.646Z,97195.75
2017-11-20T00:27:23.421Z,97185.27
2017-11-20T00:29:52.477Z,97180.18
2017-11-20T00:32:18.259Z,97184.12
2017-11-20T00:34:45.477Z,97185.58
2017-11-20T00:37:11.236Z,97183.41
2017-11-20T00:39:40.160Z,97185.59
2017-11-20T00:42:05.925Z,97183.73
2017-11-20T00:44:34.843Z,97177.30
2017-11-20T00:47:00.603Z,97169.20
2017-11-20T00:49:29.332Z,97173.01
2017-11-20T00:51:55.096Z,97173.38
2017-11-20T00:54:20.844Z,97176.23
2017-11-20T00:56:46.638Z,97165.32
2017-11-20T00:59:12.408Z,97175.03
2017-11-20T01:01:41.597Z,97170.81
2017-11-20T01:04:07.384Z,97167.75
2017-11-20T01:06:35.880Z,97161.41
2017-11-20T01:09:01.665Z,97161.95
2017-11-20T01:11:30.762Z,97158.83
2017-11-20T01:13:56.572Z,97161.00
2017-11-20T01:16:26.362Z,97162.44
2017-11-20T01:18:52.331Z,97156.92
2017-11-20T01:21:21.636Z,97151.44
2017-11-20T01:23:47.404Z,97157.04
2017-11-20T01:26:14.727Z,97156.98
2017-11-20T01:28:40.493Z,97155.09
2017-11-20T01:31:06.255Z,97149.02
2017-11-20T01:33:32.037Z,97149.55
2017-11-20T01:35:57.803Z,97144.04
2017-11-20T01:38:27.193Z,97143.20
2017-11-20T01:40:52.976Z,97145.78
2017-11-20T01:43:22.128Z,97141.81
2017-11-20T01:45:47.883Z,97140.02
2017-11-20T01:48:16.900Z,97141.81
2017-11-20T01:50:42.675Z,97148.19
2017-11-20T01:53:12.056Z,97143.06
2017-11-20T01:55:37.821Z,97139.61
2017-11-20T01:58:07.000Z,97137.16
2017-11-20T02:00:32.804Z,97125.93
2017-11-20T02:03:00.140Z,97136.55
2017-11-20T02:05:25.918Z,97123.61
2017-11-20T02:07:51.691Z,97122.35
2017-11-20T02:10:17.488Z,97129.13
2017-11-20T02:12:43.247Z,97136.87
2017-11-20T02:15:12.395Z,97139.72
2017-11-20T02:17:38.169Z,97152.06
2017-11-20T02:20:07.288Z,97144.23
2017-11-20T02:22:33.091Z,97148.48
2017-11-20T02:25:01.204Z,97134.37
2017-11-20T02:27:26.989Z,97127.97
2017-11-20T02:29:53.412Z,97124.56
2017-11-20T02:32:19.258Z,97122.88
2017-11-20T02:34:45.018Z,97128.48
2017-11-20T02:37:14.447Z,97126.77
2017-11-20T02:39:40.249Z,97128.91
2017-11-20T02:42:09.353Z,97128.45
2017-11-20T02:44:35.159Z,97126.77
2017-11-20T02:47:04.322Z,97131.80
2017-11-20T02:49:30.084Z,97127.51
2017-11-20T02:51:57.660Z,97130.41
2017-11-20T02:54:23.456Z,97130.39
2017-11-20T02:56:52.387Z,97126.50
2017-11-20T02:59:18.164Z,97125.98
2017-11-20T03:01:47.226Z,97126.80
2017-11-20T03:04:12.979Z,97125.95
2017-11-20T03:06:41.228Z,97117.87
2017-11-20T03:09:07.004Z,97113.36
2017-11-20T03:11:33.456Z,97112.84
2017-11-20T03:13:59.248Z,97112.80
2017-11-20T03:16:24.993Z,97119.15
2017-11-20T03:18:54.444Z,97117.34
2017-11-20T03:21:20.230Z,97118.56
2017-11-20T03:23:49.484Z,97112.55
2017-11-20T03:26:15.263Z,97115.92
2017-11-20T03:28:42.576Z,97123.05
2017-11-20T03:31:08.357Z,97124.25
2017-11-20T03:33:37.098Z,97119.95
2017-11-20T03:36:02.884Z,97124.28
2017-11-20T03:38:32.137Z,97124.38
2017-11-20T03:40:57.944Z,97118.27
2017-11-20T03:43:26.904Z,97115.67
2017-11-20T03:45:52.692Z,97113.03
2017-11-20T03:48:21.258Z,97119.43
2017-11-20T03:50:47.048Z,97112.20
2017-11-20T03:53:15.779Z,97113.82
2017-11-20T03:55:41.561Z,97117.55
2017-11-20T03:58:07.331Z,97118.91
2017-11-20T04:00:33.108Z,97112.83
2017-11-20T04:02:58.863Z,97110.26
2017-11-20T04:05:27.692Z,97112.01
2017-11-20T04:07:53.444Z,97109.50
2017-11-20T04:10:22.012Z,97104.87
2017-11-20T04:12:47.778Z,97120.09
2017-11-20T04:15:13.539Z,97114.64
2017-11-20T04:17:39.346Z,97118.03
2017-11-20T04:20:05.123Z,97126.92
2017-11-20T04:25:01.556Z,97111.84
2017-11-20T04:27:29.151Z,97115.89
2017-11-20T04:29:54.927Z,97115.92
2017-11-20T04:32:25.179Z,97121.90
2017-11-20T04:34:50.960Z,97115.80
2017-11-20T04:37:18.222Z,97116.92
2017-11-20T04:39:44.002Z,97114.48
2017-11-20T04:42:12.702Z,97115.09
2017-11-20T04:44:38.671Z,97111.27
2017-11-20T04:49:35.304Z,97108.76
2017-11-20T04:52:02.423Z,97102.53
2017-11-20T04:54:28.227Z,97107.44
2017-11-20T04:56:54.676Z,97099.13
2017-11-20T04:59:22.004Z,97101.08
2017-11-20T05:01:47.788Z,97102.73
2017-11-20T05:04:14.798Z,97104.87
2017-11-20T05:06:40.567Z,97106.20
2017-11-20T05:09:09.612Z,97112.30
2017-11-20T05:11:35.368Z,97115.86
2017-11-20T05:14:04.301Z,97107.58
2017-11-20T05:16:30.092Z,97108.80
2017-11-20T05:18:59.056Z,97114.11
2017-11-20T05:21:24.795Z,97112.86
2017-11-20T05:23:53.867Z,97111.73
2017-11-20T05:26:19.617Z,97113.48
2017-11-20T05:28:47.684Z,97113.11
2017-11-20T05:31:13.448Z,97116.14
2017-11-20T05:36:09.999Z,97116.77
2017-11-20T05:38:37.404Z,97124.60
2017-11-20T05:41:03.196Z,97113.42
2017-11-20T05:43:31.405Z,97116.58
2017-11-20T05:45:57.229Z,97116.15
2017-11-20T05:48:22.989Z,97118.47
2017-11-20T05:50:49.093Z,97116.82
2017-11-20T05:53:14.874Z,97118.84
2017-11-20T05:55:43.418Z,97123.65
2017-11-20T05:58:09.200Z,97126.56
2017-11-20T06:03:05.812Z,97123.28
2017-11-20T06:05:34.858Z,97129.31
2017-11-20T06:08:00.617Z,97136.05
2017-11-20T06:10:27.752Z,97127.33
2017-11-20T06:12:53.536Z,97125.28
2017-11-20T06:15:22.367Z,97121.48
2017-11-20T06:17:48.137Z,97115.72
2017-11-20T06:22:44.672Z,97114.74
2017-11-20T06:25:10.454Z,97117.22
2017-11-20T06:27:36.245Z,97122.67
2017-11-20T06:30:02.035Z,97117.00
2017-11-20T06:32:29.450Z,97120.03
2017-11-20T06:34:55.239Z,97126.00
2017-11-20T06:37:24.268Z,97128.09
2017-11-20T06:39:50.045Z,97133.27
2017-11-20T06:42:19.208Z,97142.24
2017-11-20T06:44:44.992Z,97140.92
2017-11-20T06:47:14.343Z,97139.61
2017-11-20T06:49:40.171Z,97143.04
2017-11-20T06:52:08.252Z,97142.73
2017-11-20T06:54:34.020Z,97140.38
2017-11-20T06:57:03.463Z,97141.73
2017-11-20T06:59:29.232Z,97144.63
2017-11-20T07:01:55.059Z,97143.06
2017-11-20T07:04:20.821Z,97140.59
2017-11-20T07:06:46.599Z,97139.61
2017-11-20T07:09:15.448Z,97147.05
2017-11-20T07:11:41.194Z,97140.06
2017-11-20T07:14:10.407Z,97141.27
2017-11-20T07:16:36.162Z,97137.77
2017-11-20T07:19:05.268Z,97140.22
2017-11-20T07:21:31.024Z,97135.03
2017-11-20T07:24:00.172Z,97132.27
2017-11-20T07:26:38.370Z,97135.81
2017-11-20T07:29:16.460Z,97141.92
2017-11-20T07:31:42.219Z,97149.91
2017-11-20T07:34:20.320Z,97151.42
2017-11-20T07:36:58.472Z,97153.97
2017-11-20T07:39:30.160Z,97153.64
2017-11-20T07:41:55.905Z,97159.28
2017-11-20T07:44:21.672Z,97157.27
2017-11-20T07:46:47.447Z,97157.63
2017-11-20T07:49:13.200Z,97164.23
2017-11-20T07:51:38.963Z,97155.19
2017-11-20T07:54:04.711Z,97158.71
2017-11-20T07:56:30.476Z,97156.33
2017-11-20T07:58:56.207Z,97155.50
2017-11-20T08:01:21.992Z,97156.75
2017-11-20T08:03:47.751Z,97153.30
2017-11-20T08:06:13.489Z,97152.21
2017-11-20T08:08:39.243Z,97157.76
2017-11-20T08:11:05.001Z,97152.97
2017-11-20T08:13:30.755Z,97156.05
2017-11-20T08:15:56.734Z,97155.64
2017-11-20T08:18:22.483Z,97149.64
2017-11-20T08:20:48.260Z,97148.45
2017-11-20T08:23:14.004Z,97147.59
2017-11-20T08:25:39.781Z,97154.88
2017-11-20T08:28:05.564Z,97164.95
2017-11-20T08:30:31.322Z,97171.17
2017-11-20T08:32:57.048Z,97172.79
2017-11-20T08:35:22.804Z,97181.37
2017-11-20T08:37:48.737Z,97181.21
2017-11-20T08:40:14.501Z,97177.41
2017-11-20T08:42:40.267Z,97184.98
2017-11-20T08:45:06.037Z,97178.91
2017-11-20T08:47:31.841Z,97180.92
2017-11-20T08:49:57.708Z,97181.51
2017-11-20T08:52:23.456Z,97181.08
2017-11-20T08:54:49.207Z,97173.25
2017-11-20T08:57:14.985Z,97178.38
2017-11-20T08:59:40.796Z,97181.14
2017-11-20T09:02:06.565Z,97178.05
2017-11-20T09:04:32.363Z,97175.83
2017-11-20T09:06:58.133Z,97175.30
2017-11-20T09:09:23.904Z,97179.66
2017-11-20T09:11:49.691Z,97173.64
2017-11-20T09:14:15.448Z,97180.55
2017-11-20T09:16:41.220Z,97183.20
2017-11-20T09:19:09.153Z,97177.58
2017-11-20T09:21:34.948Z,97180.72
2017-11-20T09:24:03.659Z,97182.06
2017-11-20T09:26:29.428Z,97192.97
2017-11-20T09:28:55.203Z,97190.52
2017-11-20T09:31:20.948Z,97192.00
2017-11-20T09:33:46.716Z,97191.76
2017-11-20T09:36:16.388Z,97185.11
2017-11-20T09:38:42.178Z,97194.88
2017-11-20T09:41:11.345Z,97195.84
2017-11-20T09:43:37.135Z,97197.56
2017-11-20T09:46:06.140Z,97193.12
2017-11-20T09:48:31.924Z,97185.69
2017-11-20T09:50:59.469Z,97180.92
2017-11-20T09:53:25.261Z,97178.41
2017-11-20T09:58:21.743Z,97161.94
2017-11-20T10:00:49.399Z,97168.09
2017-11-20T10:03:15.169Z,97167.80
2017-11-20T10:05:40.912Z,97166.61
2017-11-20T10:08:06.687Z,97170.22
2017-11-20T10:13:00.661Z,97167.34
2017-11-20T10:15:26.451Z,97171.20
2017-11-20T10:20:23.094Z,97172.14
2017-11-20T10:22:50.788Z,97162.25
2017-11-20T10:25:16.560Z,97160.89
2017-11-20T10:27:45.407Z,97159.31
2017-11-20T10:30:11.167Z,97156.00
2017-11-20T10:32:40.474Z,97134.02
2017-11-20T10:35:06.256Z,97152.59
2017-11-20T10:37:36.877Z,97150.84
2017-11-20T10:42:28.444Z,97139.34
2017-11-20T10:44:54.215Z,97133.39
2017-11-20T10:47:20.009Z,97131.09
2017-11-20T10:49:46.695Z,97124.48
2017-11-20T10:52:12.502Z,97127.69
2017-11-20T10:54:41.670Z,97129.84
2017-11-20T10:57:07.452Z,97126.39
2017-11-20T10:59:36.470Z,97117.77
2017-11-20T11:02:02.268Z,97111.98
2017-11-20T11:04:30.334Z,97104.33
2017-11-20T11:06:56.104Z,97097.40
2017-11-20T11:09:25.038Z,97099.36
2017-11-20T11:11:50.807Z,97094.83
2017-11-20T11:14:19.788Z,97088.11
2017-11-20T11:16:45.600Z,97092.66
2017-11-20T11:19:11.372Z,97083.59
2017-11-20T11:21:37.132Z,97082.53
2017-11-20T11:24:02.913Z,97070.45
2017-11-20T11:26:32.095Z,97056.92
2017-11-20T11:28:57.893Z,97055.73
2017-11-20T11:31:27.373Z,97056.38
2017-11-20T11:33:53.145Z,97034.83
2017-11-20T11:36:20.872Z,97022.32
2017-11-20T11:38:46.627Z,97021.94
2017-11-20T11:41:15.545Z,97012.87
2017-11-20T11:43:41.330Z,97011.92
2017-11-20T11:46:09.924Z,97008.35
2017-11-20T11:48:35.704Z,97007.03
2017-11-20T11:51:04.805Z,97004.20
2017-11-20T11:53:30.600Z,96989.14
2017-11-20T11:55:56.386Z,96995.63
2017-11-20T11:58:22.173Z,96999.38
2017-11-20T12:00:47.953Z,96996.84
2017-11-20T12:03:17.717Z,97005.67
2017-11-20T12:05:43.501Z,97017.49
2017-11-20T12:08:12.650Z,97007.89
2017-11-20T12:10:38.417Z,97002.94
2017-11-20T12:13:05.987Z,96993.05
2017-11-20T12:15:31.771Z,96984.06
2017-11-20T12:17:58.251Z,96984.70
2017-11-20T12:20:24.031Z,96981.91
2017-11-20T12:22:49.833Z,96972.02
2017-11-20T12:25:18.951Z,96963.11
2017-11-20T12:27:44.759Z,96959.36
2017-11-20T12:30:13.678Z,96953.50
2017-11-20T12:32:39.476Z,96952.13
2017-11-20T12:35:07.193Z,96959.25
2017-11-20T12:37:33.016Z,96962.08
2017-11-20T12:40:01.561Z,96957.48
2017-11-20T12:42:27.312Z,96959.64
2017-11-20T12:44:58.302Z,96966.00
2017-11-20T12:47:24.088Z,96967.42
2017-11-20T12:49:53.357Z,96968.67
2017-11-20T12:52:19.111Z,96946.85
2017-11-20T12:54:46.109Z,96941.86
2017-11-20T12:57:11.916Z,96942.33
2017-11-20T12:59:40.896Z,96943.14
2017-11-20T13:02:06.687Z,96939.92
2017-11-20T13:04:35.612Z,96943.96
2017-11-20T13:07:01.443Z,96947.78
2017-11-20T13:09:27.228Z,96956.61
2017-11-20T13:11:53.036Z,96957.38
2017-11-20T13:14:18.803Z,96958.94
2017-11-20T13:16:47.192Z,96957.89
2017-11-20T13:19:13.077Z,96955.60
2017-11-20T13:21:42.027Z,96946.45
2017-11-20T13:24:07.804Z,96945.16
2017-11-20T13:26:40.529Z,96937.63
2017-11-20T13:29:06.347Z,96938.83
2017-11-20T13:31:32.189Z,96937.69
2017-11-20T13:33:58.008Z,96939.36
2017-11-20T13:36:27.727Z,96934.59
2017-11-20T13:38:53.564Z,96930.32
2017-11-20T13:41:22.708Z,96925.22
2017-11-20T13:43:48.480Z,96924.25
2017-11-20T13:46:14.235Z,96920.84
2017-11-20T13:48:40.032Z,96923.28
2017-11-20T13:51:05.817Z,96929.80
2017-11-20T13:53:33.240Z,96918.52
2017-11-20T13:55:59.024Z,96913.01
2017-11-20T13:58:28.633Z,96901.42
2017-11-20T14:00:54.448Z,96897.59
2017-11-20T14:03:23.236Z,96887.25
2017-11-20T14:05:49.056Z,96890.36
2017-11-20T14:08:17.056Z,96876.96
2017-11-20T14:10:42.824Z,96885.48
2017-11-20T14:13:12.453Z,96878.39
2017-11-20T14:15:38.236Z,96875.81
2017-11-20T14:18:06.355Z,96879.17
2017-11-20T14:20:32.165Z,96870.98
2017-11-20T14:22:57.977Z,96875.10
2017-11-20T14:25:23.784Z,96869.69
2017-11-20T14:27:49.538Z,96870.12
2017-11-20T14:30:19.138Z,96863.95
2017-11-20T14:32:44.922Z,96871.36
2017-11-20T14:35:13.972Z,96878.58
2017-11-20T14:37:41.245Z,96865.52
2017-11-20T14:40:07.800Z,96854.95
2017-11-20T14:42:33.572Z,96870.50
2017-11-20T14:45:02.689Z,96864.41
2017-11-20T14:47:28.512Z,96866.41
2017-11-20T14:49:58.043Z,96860.30
2017-11-20T14:52:26.667Z,96861.96
2017-11-20T14:54:52.463Z,96861.20
2017-11-20T14:57:18.288Z,96853.97
2017-11-20T14:59:44.084Z,96840.27
2017-11-20T15:02:09.902Z,96842.03
2017-11-20T15:04:35.707Z,96833.47
2017-11-20T15:07:03.464Z,96827.97
2017-11-20T15:09:30.058Z,96822.89
2017-11-20T15:11:57.713Z,96815.95
2017-11-20T15:14:23.597Z,96796.87
2017-11-20T15:16:58.967Z,96804.13
2017-11-20T15:19:24.806Z,96818.90
2017-11-20T15:21:50.583Z,96824.07
2017-11-20T15:24:16.401Z,96818.23
2017-11-20T15:26:42.262Z,96816.98
2017-11-20T15:29:08.075Z,96814.87
2017-11-20T15:31:36.601Z,96818.23
2017-11-20T15:34:02.395Z,96818.45
2017-11-20T15:36:28.215Z,96815.87
2017-11-20T15:38:53.974Z,96808.56
2017-11-20T15:41:19.750Z,96808.60
2017-11-20T15:43:48.380Z,96810.03
2017-11-20T15:46:14.156Z,96810.13
2017-11-20T15:51:10.675Z,96797.41
2017-11-20T15:53:39.464Z,96789.55
2017-11-20T15:56:05.208Z,96794.89
2017-11-20T15:58:34.482Z,96794.59
2017-11-20T16:01:00.296Z,96790.38
2017-11-20T16:03:29.311Z,96777.75
2017-11-20T16:05:55.084Z,96791.30
2017-11-20T16:08:22.124Z,96791.69
2017-11-20T16:10:47.893Z,96786.66
2017-11-20T16:13:13.651Z,96787.73
2017-11-20T16:15:39.407Z,96789.88
2017-11-20T16:18:05.216Z,96786.15
2017-11-20T16:20:34.619Z,96775.79
2017-11-20T16:23:00.396Z,96778.11
2017-11-20T16:25:29.545Z,96773.48
2017-11-20T16:27:55.326Z,96767.59
2017-11-20T16:30:24.775Z,96763.38
2017-11-20T16:32:50.561Z,96768.23
2017-11-20T16:35:19.548Z,96644.94
2017-11-20T16:37:46.345Z,96754.22
2017-11-20T16:40:13.383Z,96753.23
2017-11-20T16:42:39.163Z,96754.53
2017-11-20T16:45:08.144Z,96752.00
2017-11-20T16:47:33.951Z,96744.82
2017-11-20T16:49:59.708Z,96746.16
2017-11-20T16:52:25.448Z,96738.85
2017-11-20T16:54:51.240Z,96735.92
2017-11-20T16:57:29.612Z,96730.44
2017-11-20T16:59:55.395Z,96733.91
2017-11-20T17:02:33.582Z,96738.12
2017-11-20T17:04:59.359Z,96732.92
2017-11-20T17:07:25.137Z,96732.07
2017-11-20T17:09:50.932Z,96724.42
2017-11-20T17:14:40.968Z,96715.01
2017-11-20T17:17:06.740Z,96719.44
2017-11-20T17:19:32.487Z,96709.52
2017-11-20T17:21:58.248Z,96716.34
2017-11-20T17:24:23.997Z,96709.67
2017-11-20T17:26:49.800Z,96708.39
2017-11-20T17:29:15.532Z,96704.92
2017-11-20T17:31:41.299Z,96704.22
2017-11-20T17:34:07.060Z,96705.16
2017-11-20T17:36:32.876Z,96704.27
2017-11-20T17:38:59.264Z,96701.69
2017-11-20T17:41:25.055Z,96712.98
2017-11-20T17:43:57.573Z,96704.64
2017-11-20T17:46:23.359Z,96707.91
2017-11-20T17:48:49.119Z,96715.16
2017-11-20T17:51:14.892Z,96718.86
2017-11-20T17:53:44.627Z,96709.36
2017-11-20T17:56:10.399Z,96708.67
2017-11-20T17:58:38.008Z,96717.17
2017-11-20T18:01:03.769Z,96704.06
2017-11-20T18:03:29.544Z,96701.97
2017-11-20T18:05:55.294Z,96706.55
2017-11-20T18:08:21.067Z,96698.78
2017-11-20T18:10:49.874Z,96683.88
2017-11-20T18:13:15.676Z,96682.88
2017-11-20T18:15:44.360Z,96685.02
2017-11-20T18:18:10.160Z,96682.06
2017-11-20T18:20:39.001Z,96687.73
2017-11-20T18:23:04.816Z,96683.66
2017-11-20T18:25:31.316Z,96691.83
2017-11-20T18:27:57.116Z,96663.19
2017-11-20T18:30:22.907Z,96676.59
2017-11-20T18:32:50.809Z,96673.83
2017-11-20T18:35:16.585Z,96678.27
2017-11-20T18:37:45.369Z,96675.73
2017-11-20T18:40:11.143Z,96677.02
2017-11-20T18:45:07.835Z,96677.54
2017-11-20T18:47:35.306Z,96666.28
2017-11-20T18:50:01.094Z,96662.92
2017-11-20T18:52:30.180Z,96668.52
2017-11-20T18:54:55.947Z,96664.53
2017-11-20T18:57:24.969Z,96635.44
2017-11-20T19:00:03.160Z,96659.22
2017-11-20T19:02:41.341Z,96653.98
2017-11-20T19:05:19.509Z,96651.83
2017-11-20T19:07:57.741Z,96654.52
2017-11-20T19:10:23.517Z,96664.11
2017-11-20T19:12:49.307Z,96664.06
2017-11-20T19:15:15.933Z,96655.42
2017-11-20T19:17:41.735Z,96652.55
2017-11-20T19:20:07.503Z,96645.40
2017-11-20T19:22:33.261Z,96648.09
2017-11-20T19:24:59.056Z,96653.63
2017-11-20T19:27:24.803Z,96647.96
2017-11-20T19:29:50.554Z,96655.55
2017-11-20T19:32:16.344Z,96648.97
2017-11-20T19:34:42.099Z,96649.06
2017-11-20T19:37:07.895Z,96626.58
2017-11-20T19:39:33.656Z,96641.56
2017-11-20T19:41:59.440Z,96651.27
2017-11-20T19:44:25.197Z,96653.23
2017-11-20T19:46:50.985Z,96654.38
2017-11-20T19:49:16.781Z,96647.84
2017-11-20T19:51:42.522Z,96638.47
2017-11-20T19:54:08.308Z,96634.08
2017-11-20T19:56:34.066Z,96648.84
2017-11-20T19:58:59.858Z,96646.03
2017-11-20T20:01:25.609Z,96653.97
2017-11-20T20:03:51.378Z,96644.79
2017-11-20T20:06:17.148Z,96643.69
2017-11-20T20:08:42.929Z,96648.88
2017-11-20T20:11:08.705Z,96648.45
2017-11-20T20:13:45.543Z,96650.77
2017-11-20T20:16:19.412Z,96650.16
2017-11-20T20:18:45.171Z,96641.34
2017-11-20T20:21:10.961Z,96650.03
2017-11-20T20:23:36.736Z,96650.91
2017-11-20T20:26:02.584Z,96641.52
2017-11-20T20:28:28.361Z,96636.31
2017-11-20T20:30:54.113Z,96628.20
2017-11-20T20:33:19.888Z,96629.23
2017-11-20T20:35:45.655Z,96627.02
2017-11-20T20:38:11.440Z,96619.85
2017-11-20T20:40:37.188Z,96620.23
2017-11-20T20:43:02.940Z,96630.64
2017-11-20T20:45:28.726Z,96635.09
2017-11-20T20:47:54.503Z,96644.38
2017-11-20T20:50:20.276Z,96646.20
2017-11-20T20:52:46.040Z,96655.69
2017-11-20T20:55:11.796Z,96648.63
2017-11-20T20:57:37.577Z,96649.22
2017-11-20T21:00:03.368Z,96641.30
2017-11-20T21:02:29.128Z,96638.88
2017-11-20T21:04:54.900Z,96635.10
2017-11-20T21:07:20.660Z,96635.36
2017-11-20T21:09:52.604Z,96640.75
2017-11-20T21:12:20.367Z,96631.45
2017-11-20T21:14:46.148Z,96641.38
2017-11-20T21:17:12.075Z,96637.36
2017-11-20T21:19:37.828Z,96634.21
2017-11-20T21:22:03.604Z,96631.95
2017-11-20T21:24:29.351Z,96629.91
2017-11-20T21:26:55.095Z,96618.89
2017-11-20T21:29:20.860Z,96618.41
2017-11-20T21:31:46.629Z,96621.38
2017-11-20T21:34:15.641Z,96630.31
2017-11-20T21:36:41.401Z,96619.47
2017-11-20T21:39:10.399Z,96614.55
2017-11-20T21:41:36.164Z,96608.88
2017-11-20T21:44:02.772Z,96600.06
2017-11-20T21:46:28.528Z,96602.36
2017-11-20T21:48:54.327Z,96605.63
2017-11-20T21:51:23.418Z,96604.88
2017-11-20T21:53:49.179Z,96602.03
2017-11-20T21:56:16.368Z,96599.87
2017-11-20T21:58:42.156Z,96599.38
2017-11-20T22:01:11.231Z,96592.48
2017-11-20T22:03:37.028Z,96586.07
2017-11-20T22:06:06.342Z,96595.88
2017-11-20T22:08:32.124Z,96573.73
2017-11-20T22:11:01.736Z,96562.63
2017-11-20T22:13:27.560Z,96573.05
2017-11-20T22:15:55.092Z,96574.91
2017-11-20T22:18:20.869Z,96567.19
2017-11-20T22:20:46.632Z,96558.91
2017-11-20T22:23:12.406Z,96564.10
2017-11-20T22:25:38.171Z,96559.58
2017-11-20T22:28:07.349Z,96566.86
2017-11-20T22:30:33.138Z,96562.44
2017-11-20T22:33:02.456Z,96562.74
2017-11-20T22:35:28.208Z,96562.74
2017-11-20T22:37:57.719Z,96569.33
2017-11-20T22:40:23.480Z,96560.29
2017-11-20T22:42:51.163Z,96565.58
2017-11-20T22:45:16.909Z,96559.34
2017-11-20T22:47:46.019Z,96563.58
2017-11-20T22:50:11.781Z,96564.78
2017-11-20T22:52:40.493Z,96573.45
2017-11-20T22:55:06.280Z,96570.55
2017-11-20T22:57:32.038Z,96578.88
2017-11-20T22:59:57.811Z,96584.06
2017-11-20T23:02:23.578Z,96592.56
2017-11-20T23:04:53.019Z,96604.66
2017-11-20T23:07:18.788Z,96600.85
2017-11-20T23:09:48.323Z,96607.47
2017-11-20T23:12:14.088Z,96595.80
2017-11-20T23:14:41.691Z,96603.09
2017-11-20T23:17:07.441Z,96606.06
2017-11-20T23:19:36.368Z,96621.53
2017-11-20T23:22:02.128Z,96604.09
2017-11-20T23:24:31.469Z,96594.11
2017-11-20T23:26:57.236Z,96598.65
2017-11-20T23:29:26.788Z,96594.65
2017-11-20T23:31:52.556Z,96592.15
2017-11-20T23:34:18.320Z,96583.70
2017-11-20T23:36:44.081Z,96576.53
2017-11-20T23:39:09.823Z,96584.83
2017-11-20T23:41:37.407Z,96576.93
2017-11-20T23:44:03.213Z,96582.30
2017-11-20T23:46:31.969Z,96577.72
2017-11-20T23:48:57.740Z,96575.25
2017-11-20T23:53:54.511Z,96580.59
2017-11-20T23:56:22.013Z,96570.73
2017-11-20T23:58:47.760Z,96553.17
